Time;durP1;ratioP1;P1;durP2;ratioP2;P2;SDS_P1;SDS_P2;PMS_P1;PMS_P2;Temp;Humidity;BMP_temperature;BMP_pressure;BME280_temperature;BME280_humidity;BME280_pressure;Samples;Min_cycle;Max_cycle;Signal;HPM_P1;HPM_P2
2020/12/19 00:02:21;;;;;;;;;;;3.70;99.90;;;;;;5137370;27;19962;-85
2020/12/19 00:05:05;;;;;;;;;;;3.70;99.90;;;;;;5137468;27;19975;-85
2020/12/19 00:07:38;;;;;;;;;;;3.70;99.90;;;;;;5138498;27;19907;-86
2020/12/19 00:10:04;;;;;;;;;;;3.60;99.90;;;;;;5137606;27;19920;-85
2020/12/19 00:12:37;;;;;;;;;;;3.60;99.90;;;;;;5136921;27;19994;-85
2020/12/19 00:15:14;;;;;;;;;;;3.50;99.90;;;;;;5137032;27;20371;-84
2020/12/19 00:17:46;;;;;;;;;;;3.50;99.90;;;;;;5155565;27;19943;-85
2020/12/19 00:20:20;;;;;;;;;;;3.40;99.90;;;;;;5155918;27;19969;-86
2020/12/19 00:22:48;;;;;;;;;;;3.40;99.90;;;;;;5137790;27;19907;-87
2020/12/19 00:25:19;;;;;;;;;;;3.50;99.90;;;;;;5137557;27;20043;-87
2020/12/19 00:27:45;;;;;;;;;;;3.50;99.90;;;;;;5151784;27;19951;-85
2020/12/19 00:30:20;;;;;;;;;;;3.50;99.90;;;;;;5142435;27;20419;-84
2020/12/19 00:33:01;;;;;;;;;;;3.60;99.90;;;;;;5155981;27;19907;-85
2020/12/19 00:35:50;;;;;;;;;;;3.70;99.90;;;;;;5137115;27;19907;-86
2020/12/19 00:38:19;;;;;;;;;;;3.70;99.90;;;;;;5136863;27;19915;-85
2020/12/19 00:40:56;;;;;;;;;;;3.70;99.90;;;;;;5140934;27;19907;-85
2020/12/19 00:43:22;;;;;;;;;;;3.70;99.90;;;;;;5158453;27;19937;-86
2020/12/19 00:45:53;;;;;;;;;;;3.90;99.90;;;;;;5134825;27;20282;-85
2020/12/19 00:48:21;;;;;;;;;;;3.90;99.90;;;;;;5155633;27;19915;-85
2020/12/19 00:50:49;;;;;;;;;;;3.90;99.90;;;;;;5134362;27;20347;-86
2020/12/19 00:53:36;;;;;;;;;;;4.00;99.90;;;;;;5136892;27;19911;-85
2020/12/19 00:56:07;;;;;;;;;;;4.00;99.90;;;;;;5120020;27;19945;-86
2020/12/19 00:58:46;;;;;;;;;;;3.90;99.90;;;;;;5119886;27;19950;-86
2020/12/19 01:01:15;;;;;;;;;;;4.00;99.90;;;;;;5136945;27;20001;-87
2020/12/19 01:03:46;;;;;;;;;;;4.00;99.90;;;;;;5149598;27;20014;-87
2020/12/19 01:06:24;;;;;;;;;;;4.00;99.90;;;;;;5137112;27;19915;-85
2020/12/19 01:08:55;;;;;;;;;;;4.00;99.90;;;;;;5136888;27;19907;-85
2020/12/19 01:11:26;;;;;;;;;;;3.90;99.90;;;;;;5152625;27;19911;-86
2020/12/19 01:14:07;;;;;;;;;;;3.80;99.90;;;;;;5155040;27;20405;-85
2020/12/19 01:16:39;;;;;;;;;;;3.80;99.90;;;;;;5136570;27;20001;-84
2020/12/19 01:19:15;;;;;;;;;;;3.70;99.90;;;;;;5152602;27;19911;-86
2020/12/19 01:21:51;;;;;;;;;;;3.70;99.90;;;;;;5136827;27;19998;-86
2020/12/19 01:24:22;;;;;;;;;;;3.70;99.90;;;;;;5140064;27;19907;-86
2020/12/19 01:26:49;;;;;;;;;;;3.60;99.90;;;;;;5140541;27;19907;-85
2020/12/19 01:29:18;;;;;;;;;;;3.60;99.90;;;;;;5140919;27;20046;-85
2020/12/19 01:31:50;;;;;;;;;;;3.50;99.90;;;;;;5140360;27;19918;-86
2020/12/19 01:34:38;;;;;;;;;;;3.40;99.90;;;;;;5156799;27;19911;-86
2020/12/19 01:37:12;;;;;;;;;;;3.30;99.90;;;;;;5140681;27;19919;-86
2020/12/19 01:39:38;;;;;;;;;;;3.20;99.90;;;;;;5136767;27;19911;-86
2020/12/19 01:42:11;;;;;;;;;;;3.20;99.90;;;;;;5139621;27;19953;-86
2020/12/19 01:44:42;;;;;;;;;;;3.20;99.90;;;;;;5140443;27;19928;-85
2020/12/19 01:47:12;;;;;;;;;;;3.10;99.90;;;;;;5154683;27;19911;-87
2020/12/19 01:49:40;;;;;;;;;;;3.10;99.90;;;;;;5139987;27;19923;-86
2020/12/19 01:52:11;;;;;;;;;;;3.10;99.90;;;;;;5134491;27;19958;-85
2020/12/19 01:54:40;;;;;;;;;;;3.20;99.90;;;;;;5139633;27;19908;-86
2020/12/19 01:57:12;;;;;;;;;;;3.20;99.90;;;;;;5134767;27;19911;-86
2020/12/19 01:59:47;;;;;;;;;;;3.10;99.90;;;;;;5158646;27;19964;-86
2020/12/19 02:02:16;;;;;;;;;;;3.10;99.90;;;;;;5139976;27;19956;-85
2020/12/19 02:04:44;;;;;;;;;;;3.00;99.90;;;;;;5158409;27;19918;-86
2020/12/19 02:07:18;;;;;;;;;;;3.10;99.90;;;;;;5134274;27;19997;-86
2020/12/19 02:09:55;;;;;;;;;;;3.00;99.90;;;;;;5158608;27;19914;-87
2020/12/19 02:12:27;;;;;;;;;;;3.00;99.90;;;;;;5140247;27;19911;-86
2020/12/19 02:14:59;;;;;;;;;;;2.90;99.90;;;;;;5139961;27;19907;-86
2020/12/19 02:17:33;;;;;;;;;;;2.90;99.90;;;;;;5158159;27;19967;-86
2020/12/19 02:20:05;;;;;;;;;;;2.90;99.90;;;;;;5139634;27;19907;-86
2020/12/19 02:22:46;;;;;;;;;;;2.80;99.90;;;;;;5139537;27;19927;-86
2020/12/19 02:25:22;;;;;;;;;;;2.80;99.90;;;;;;5142528;27;19911;-87
2020/12/19 02:28:13;;;;;;;;;;;2.70;99.90;;;;;;5163707;27;19907;-86
2020/12/19 02:30:39;;;;;;;;;;;2.80;99.90;;;;;;5141258;27;19914;-86
2020/12/19 02:33:19;;;;;;;;;;;2.90;99.90;;;;;;5139411;27;19907;-86
2020/12/19 02:35:50;;;;;;;;;;;2.90;99.90;;;;;;5155088;27;19911;-86
2020/12/19 02:38:27;;;;;;;;;;;2.90;99.90;;;;;;5158209;27;19955;-86
2020/12/19 02:40:56;;;;;;;;;;;2.80;99.90;;;;;;5139806;27;20389;-86
2020/12/19 02:43:21;;;;;;;;;;;2.80;99.90;;;;;;5157982;27;19930;-87
2020/12/19 02:46:04;;;;;;;;;;;2.70;99.90;;;;;;5138709;27;19907;-86
2020/12/19 02:48:33;;;;;;;;;;;2.70;99.90;;;;;;5139793;27;19930;-86
2020/12/19 02:51:07;;;;;;;;;;;2.60;99.90;;;;;;5139363;27;19911;-86
2020/12/19 02:53:32;;;;;;;;;;;2.70;99.90;;;;;;5138996;27;19913;-87
2020/12/19 02:56:02;;;;;;;;;;;2.70;99.90;;;;;;5139165;27;19990;-86
2020/12/19 02:58:51;;;;;;;;;;;2.70;99.90;;;;;;5133762;27;19957;-86
2020/12/19 03:01:19;;;;;;;;;;;2.60;99.90;;;;;;5139366;27;19910;-86
2020/12/19 03:03:50;;;;;;;;;;;2.60;99.90;;;;;;5138900;27;19950;-86
2020/12/19 03:06:18;;;;;;;;;;;2.60;99.90;;;;;;5138752;27;19908;-85
2020/12/19 03:08:50;;;;;;;;;;;2.50;99.90;;;;;;5138288;27;19911;-86
2020/12/19 03:11:26;;;;;;;;;;;2.40;99.90;;;;;;5138819;27;20372;-86
2020/12/19 03:13:58;;;;;;;;;;;2.40;99.90;;;;;;5139269;27;19915;-86
2020/12/19 03:16:34;;;;;;;;;;;2.30;99.90;;;;;;5138575;27;20385;-85
2020/12/19 03:19:01;;;;;;;;;;;2.30;99.90;;;;;;5138482;27;20287;-86
2020/12/19 03:21:29;;;;;;;;;;;2.30;99.90;;;;;;5156651;27;19907;-85
2020/12/19 03:24:00;;;;;;;;;;;2.20;99.90;;;;;;5157046;27;19994;-86
2020/12/19 03:26:31;;;;;;;;;;;2.20;99.90;;;;;;5138859;27;19999;-86
2020/12/19 03:29:02;;;;;;;;;;;2.10;99.90;;;;;;5138440;27;20270;-86
2020/12/19 03:31:35;;;;;;;;;;;2.10;99.90;;;;;;5138221;27;19913;-86
2020/12/19 03:34:22;;;;;;;;;;;2.10;99.90;;;;;;5131595;27;19907;-86
2020/12/19 03:36:53;;;;;;;;;;;2.10;99.90;;;;;;5157230;27;19954;-86
2020/12/19 03:39:37;;;;;;;;;;;2.10;99.90;;;;;;5156877;27;20359;-86
2020/12/19 03:42:06;;;;;;;;;;;2.00;99.90;;;;;;5137213;27;19946;-86
2020/12/19 03:44:35;;;;;;;;;;;2.00;99.90;;;;;;5137624;27;20307;-86
2020/12/19 03:47:06;;;;;;;;;;;2.00;99.90;;;;;;5156488;27;19911;-85
2020/12/19 03:49:42;;;;;;;;;;;2.00;99.90;;;;;;5137685;27;19918;-86
2020/12/19 03:52:22;;;;;;;;;;;2.00;99.90;;;;;;5156581;27;19907;-86
2020/12/19 03:54:53;;;;;;;;;;;2.00;99.90;;;;;;5156636;27;19908;-86
2020/12/19 03:57:36;;;;;;;;;;;2.00;99.90;;;;;;5137807;27;19918;-86
2020/12/19 04:00:03;;;;;;;;;;;2.00;99.90;;;;;;5156684;27;19911;-85
2020/12/19 04:02:35;;;;;;;;;;;2.00;99.90;;;;;;5137542;27;19988;-86
2020/12/19 04:05:15;;;;;;;;;;;2.00;99.90;;;;;;5137334;27;19912;-86
2020/12/19 04:07:44;;;;;;;;;;;2.00;99.90;;;;;;5137856;27;19959;-86
2020/12/19 04:10:18;;;;;;;;;;;2.00;99.90;;;;;;5144320;27;19907;-86
2020/12/19 04:12:50;;;;;;;;;;;2.00;99.90;;;;;;5139183;27;19913;-85
2020/12/19 04:15:27;;;;;;;;;;;2.10;99.90;;;;;;5138160;27;19914;-86
2020/12/19 04:17:56;;;;;;;;;;;2.10;99.90;;;;;;5135526;27;19915;-86
2020/12/19 04:20:24;;;;;;;;;;;2.00;99.90;;;;;;5138373;27;19932;-86
2020/12/19 04:22:53;;;;;;;;;;;2.00;99.90;;;;;;5156639;27;19907;-85
2020/12/19 04:25:26;;;;;;;;;;;2.00;99.90;;;;;;5156532;27;19907;-86
2020/12/19 04:27:59;;;;;;;;;;;2.00;99.90;;;;;;5158170;27;19911;-86
2020/12/19 04:30:30;;;;;;;;;;;2.00;99.90;;;;;;5145124;27;19946;-85
2020/12/19 04:32:59;;;;;;;;;;;2.00;99.90;;;;;;5146952;27;19907;-86
2020/12/19 04:35:35;;;;;;;;;;;2.00;99.90;;;;;;5159429;27;20355;-85
2020/12/19 04:38:11;;;;;;;;;;;2.00;99.90;;;;;;5141915;27;20014;-85
2020/12/19 04:40:40;;;;;;;;;;;2.00;99.90;;;;;;5155616;27;19907;-86
2020/12/19 04:43:17;;;;;;;;;;;2.00;99.90;;;;;;5155995;27;19926;-85
2020/12/19 04:45:52;;;;;;;;;;;2.00;99.90;;;;;;5138006;27;19907;-86
2020/12/19 04:48:23;;;;;;;;;;;2.00;99.90;;;;;;5155900;27;19914;-86
2020/12/19 04:50:57;;;;;;;;;;;2.00;99.90;;;;;;5137053;27;19907;-86
2020/12/19 04:53:25;;;;;;;;;;;2.00;99.90;;;;;;5137560;27;19911;-85
2020/12/19 04:55:57;;;;;;;;;;;2.10;99.90;;;;;;5156149;27;19911;-85
2020/12/19 04:58:30;;;;;;;;;;;2.10;99.90;;;;;;5139626;27;19911;-86
2020/12/19 05:00:59;;;;;;;;;;;2.10;99.90;;;;;;5141060;27;19907;-87
2020/12/19 05:03:35;;;;;;;;;;;2.10;99.90;;;;;;5137818;27;19964;-86
2020/12/19 05:06:06;;;;;;;;;;;2.10;99.90;;;;;;5141586;27;19976;-86
2020/12/19 05:08:37;;;;;;;;;;;2.10;99.90;;;;;;5154730;27;19911;-86
2020/12/19 05:11:11;;;;;;;;;;;2.10;99.90;;;;;;5155429;27;19907;-85
2020/12/19 05:13:37;;;;;;;;;;;2.10;99.90;;;;;;5135663;27;19911;-86
2020/12/19 05:16:06;;;;;;;;;;;2.20;99.90;;;;;;5140802;27;19952;-85
2020/12/19 05:18:34;;;;;;;;;;;2.30;99.90;;;;;;5154215;27;19911;-85
2020/12/19 05:21:01;;;;;;;;;;;2.30;99.90;;;;;;5134498;27;19907;-85
2020/12/19 05:23:32;;;;;;;;;;;2.30;99.90;;;;;;5038253;28;19909;-86
2020/12/19 05:26:03;;;;;;;;;;;2.40;99.90;;;;;;5050966;28;20285;-85
2020/12/19 05:28:38;;;;;;;;;;;2.40;99.90;;;;;;5054684;28;19909;-86
2020/12/19 05:31:13;;;;;;;;;;;2.50;99.90;;;;;;5055438;28;19909;-85
2020/12/19 05:33:49;;;;;;;;;;;2.60;99.90;;;;;;5057168;28;19909;-86
2020/12/19 05:36:24;;;;;;;;;;;2.70;99.90;;;;;;5055505;28;19912;-85
2020/12/19 05:39:00;;;;;;;;;;;2.80;99.90;;;;;;5054797;28;19913;-85
2020/12/19 05:41:31;;;;;;;;;;;2.90;99.90;;;;;;5054497;28;20007;-86
2020/12/19 05:43:59;;;;;;;;;;;2.90;99.90;;;;;;5037943;28;20014;-85
2020/12/19 05:46:33;;;;;;;;;;;2.90;99.90;;;;;;5038334;28;19940;-85
2020/12/19 05:49:00;;;;;;;;;;;2.90;99.90;;;;;;5038395;28;19909;-85
2020/12/19 05:51:32;;;;;;;;;;;3.00;99.90;;;;;;5054449;28;20011;-85
2020/12/19 05:54:19;;;;;;;;;;;3.00;99.90;;;;;;5082525;27;19970;-86
2020/12/19 05:57:06;;;;;;;;;;;2.90;99.90;;;;;;5157331;27;19924;-85
2020/12/19 05:59:52;;;;;;;;;;;2.90;99.90;;;;;;5140303;27;19915;-86
2020/12/19 06:02:42;;;;;;;;;;;2.90;99.90;;;;;;5155657;27;19960;-85
2020/12/19 06:05:19;;;;;;;;;;;2.90;99.90;;;;;;5140555;27;19907;-85
2020/12/19 06:07:48;;;;;;;;;;;2.80;99.90;;;;;;5137466;27;19923;-86
2020/12/19 06:10:18;;;;;;;;;;;2.80;99.90;;;;;;5138757;27;19911;-86
2020/12/19 06:12:54;;;;;;;;;;;2.80;99.90;;;;;;5140782;27;20313;-86
2020/12/19 06:15:28;;;;;;;;;;;2.80;99.90;;;;;;5140105;27;19958;-86
2020/12/19 06:18:00;;;;;;;;;;;2.70;99.90;;;;;;5139644;27;19915;-87
2020/12/19 06:20:34;;;;;;;;;;;2.70;99.90;;;;;;5137067;27;19911;-86
2020/12/19 06:23:05;;;;;;;;;;;2.60;99.90;;;;;;5140338;27;19908;-86
2020/12/19 06:25:40;;;;;;;;;;;2.50;99.90;;;;;;5139995;27;20044;-86
2020/12/19 06:28:11;;;;;;;;;;;2.50;99.90;;;;;;5140125;27;19907;-86
2020/12/19 06:30:51;;;;;;;;;;;2.50;99.90;;;;;;5140160;27;19907;-86
2020/12/19 06:33:20;;;;;;;;;;;2.40;99.90;;;;;;5139542;27;19915;-87
2020/12/19 06:35:57;;;;;;;;;;;2.30;99.90;;;;;;5139664;27;19907;-86
2020/12/19 06:38:45;;;;;;;;;;;2.20;99.90;;;;;;5158101;27;20367;-86
2020/12/19 06:41:31;;;;;;;;;;;2.20;99.90;;;;;;5139907;27;19914;-86
2020/12/19 06:44:07;;;;;;;;;;;2.20;99.90;;;;;;5108282;27;19920;-87
2020/12/19 06:46:39;;;;;;;;;;;2.10;99.90;;;;;;5139207;27;19907;-85
2020/12/19 06:49:22;;;;;;;;;;;2.10;99.90;;;;;;5157550;27;20351;-86
2020/12/19 06:52:01;;;;;;;;;;;2.10;99.90;;;;;;5139056;27;19907;-86
2020/12/19 06:54:36;;;;;;;;;;;2.00;99.90;;;;;;5139053;27;19907;-86
2020/12/19 06:57:09;;;;;;;;;;;1.90;99.90;;;;;;5139044;27;19919;-86
2020/12/19 06:59:35;;;;;;;;;;;1.90;99.90;;;;;;5121959;27;19911;-87
2020/12/19 07:02:13;;;;;;;;;;;1.90;99.90;;;;;;5157113;27;19952;-86
2020/12/19 07:04:41;;;;;;;;;;;1.90;99.90;;;;;;5139260;27;20313;-86
2020/12/19 07:07:10;;;;;;;;;;;1.90;99.90;;;;;;5133879;27;19972;-85
2020/12/19 07:09:53;;;;;;;;;;;1.90;99.90;;;;;;5156985;27;19907;-86
2020/12/19 07:12:32;;;;;;;;;;;1.80;99.90;;;;;;5138775;27;19907;-87
2020/12/19 07:15:16;;;;;;;;;;;1.90;99.90;;;;;;5132500;27;19953;-87
2020/12/19 07:17:46;;;;;;;;;;;1.90;99.90;;;;;;5138512;27;19919;-86
2020/12/19 07:20:32;;;;;;;;;;;1.90;99.90;;;;;;5156318;27;19911;-87
2020/12/19 07:23:06;;;;;;;;;;;1.90;99.90;;;;;;5157622;27;19973;-86
2020/12/19 07:25:40;;;;;;;;;;;1.90;99.90;;;;;;5135359;27;19915;-87
2020/12/19 07:28:16;;;;;;;;;;;1.90;99.90;;;;;;5156966;27;19952;-86
2020/12/19 07:30:50;;;;;;;;;;;1.80;99.90;;;;;;5138227;27;19951;-87
2020/12/19 07:33:24;;;;;;;;;;;1.80;99.90;;;;;;5138330;27;20366;-87
2020/12/19 07:36:00;;;;;;;;;;;1.80;99.90;;;;;;5137614;27;19930;-87
2020/12/19 07:38:29;;;;;;;;;;;1.80;99.90;;;;;;5140056;27;19915;-85
2020/12/19 07:41:08;;;;;;;;;;;1.80;99.90;;;;;;5133961;27;19908;-86
2020/12/19 07:43:43;;;;;;;;;;;1.80;99.90;;;;;;5137791;27;19919;-87
2020/12/19 07:46:14;;;;;;;;;;;1.80;99.90;;;;;;5138254;27;20001;-86
2020/12/19 07:48:59;;;;;;;;;;;1.80;99.90;;;;;;5154714;27;19908;-86
2020/12/19 07:51:36;;;;;;;;;;;1.90;99.90;;;;;;5138779;27;20363;-86
2020/12/19 07:54:12;;;;;;;;;;;1.80;99.90;;;;;;5156834;27;20378;-86
2020/12/19 07:56:43;;;;;;;;;;;1.90;99.90;;;;;;5156623;27;19932;-87
2020/12/19 07:59:13;;;;;;;;;;;1.90;99.90;;;;;;5150600;27;20355;-86
2020/12/19 08:01:50;;;;;;;;;;;1.90;99.90;;;;;;5156063;27;19907;-86
2020/12/19 08:04:25;;;;;;;;;;;1.90;99.90;;;;;;5155109;27;19937;-86
2020/12/19 08:06:55;;;;;;;;;;;1.90;99.90;;;;;;5134062;27;19907;-86
2020/12/19 08:09:23;;;;;;;;;;;2.00;99.90;;;;;;5134392;27;19912;-86
2020/12/19 08:12:02;;;;;;;;;;;2.00;99.90;;;;;;5138829;27;19912;-86
2020/12/19 08:14:41;;;;;;;;;;;2.00;99.90;;;;;;5149616;27;20291;-86
2020/12/19 08:17:13;;;;;;;;;;;2.00;99.90;;;;;;5153928;27;19919;-86
2020/12/19 08:19:47;;;;;;;;;;;2.10;99.90;;;;;;5138098;27;19911;-86
2020/12/19 08:22:13;;;;;;;;;;;2.10;99.90;;;;;;5133414;27;20009;-86
2020/12/19 08:24:49;;;;;;;;;;;2.10;99.90;;;;;;5145062;27;19981;-87
2020/12/19 08:27:27;;;;;;;;;;;2.10;99.90;;;;;;5144659;27;19925;-86
2020/12/19 08:30:12;;;;;;;;;;;2.20;99.90;;;;;;5142157;27;19911;-86
2020/12/19 08:32:45;;;;;;;;;;;2.20;99.90;;;;;;5147304;27;19912;-86
2020/12/19 08:35:19;;;;;;;;;;;2.30;99.90;;;;;;5127362;27;20025;-86
2020/12/19 08:38:01;;;;;;;;;;;2.40;99.90;;;;;;5133885;27;19931;-86
2020/12/19 08:40:44;;;;;;;;;;;2.50;99.90;;;;;;5135284;27;20372;-86
2020/12/19 08:43:14;;;;;;;;;;;2.60;99.90;;;;;;5130413;27;19918;-86
2020/12/19 08:45:58;;;;;;;;;;;2.80;99.90;;;;;;5154299;27;19914;-86
2020/12/19 08:48:26;;;;;;;;;;;2.90;99.90;;;;;;5140998;27;19998;-85
2020/12/19 08:50:54;;;;;;;;;;;3.10;99.90;;;;;;5137849;27;19933;-85
2020/12/19 08:53:29;;;;;;;;;;;3.20;99.90;;;;;;5120295;27;19915;-85
2020/12/19 08:56:15;;;;;;;;;;;3.30;99.90;;;;;;5120857;27;19995;-85
2020/12/19 08:58:42;;;;;;;;;;;3.50;99.90;;;;;;5138909;27;19911;-86
2020/12/19 09:01:15;;;;;;;;;;;3.60;99.90;;;;;;5120979;27;19986;-85
2020/12/19 09:03:55;;;;;;;;;;;3.90;99.90;;;;;;5139337;27;20348;-85
2020/12/19 09:06:21;;;;;;;;;;;4.00;99.90;;;;;;5120784;27;19908;-84
2020/12/19 09:08:48;;;;;;;;;;;4.20;99.90;;;;;;5117382;27;19907;-85
2020/12/19 09:11:23;;;;;;;;;;;4.30;99.90;;;;;;5138845;27;19912;-84
2020/12/19 09:13:48;;;;;;;;;;;4.40;99.90;;;;;;5119725;27;19907;-85
2020/12/19 09:16:14;;;;;;;;;;;4.60;99.90;;;;;;5138825;27;19976;-84
2020/12/19 09:18:40;;;;;;;;;;;4.90;99.90;;;;;;5120286;27;19911;-85
2020/12/19 09:21:09;;;;;;;;;;;5.00;99.90;;;;;;5133478;27;20002;-84
2020/12/19 09:23:35;;;;;;;;;;;5.20;99.90;;;;;;5115616;27;19908;-86
2020/12/19 09:26:03;;;;;;;;;;;5.40;99.90;;;;;;5131823;27;20373;-86
2020/12/19 09:28:33;;;;;;;;;;;5.50;99.90;;;;;;5119831;27;19914;-86
2020/12/19 09:31:01;;;;;;;;;;;5.60;99.90;;;;;;5121394;27;19908;-86
2020/12/19 09:33:35;;;;;;;;;;;5.80;99.90;;;;;;5125018;27;19908;-86
2020/12/19 09:36:06;;;;;;;;;;;5.80;99.90;;;;;;5120600;27;19919;-86
2020/12/19 09:38:52;;;;;;;;;;;5.80;99.90;;;;;;5136082;27;20353;-85
2020/12/19 09:41:20;;;;;;;;;;;5.90;99.90;;;;;;5120361;27;19915;-85
2020/12/19 09:43:46;;;;;;;;;;;6.00;99.90;;;;;;5119296;27;19919;-86
2020/12/19 09:46:16;;;;;;;;;;;6.10;99.90;;;;;;5119722;27;20010;-87
2020/12/19 09:48:41;;;;;;;;;;;6.20;99.90;;;;;;5125626;27;19911;-85
2020/12/19 09:51:10;;;;;;;;;;;6.20;99.90;;;;;;5155314;27;19916;-86
2020/12/19 09:53:36;;;;;;;;;;;6.30;99.90;;;;;;5158341;27;19911;-87
2020/12/19 09:56:05;;;;;;;;;;;6.40;99.90;;;;;;5160917;27;20421;-86
2020/12/19 09:58:33;;;;;;;;;;;6.50;99.90;;;;;;5140953;27;19911;-86
2020/12/19 10:00:59;;;;;;;;;;;6.60;99.90;;;;;;5128988;27;19914;-86
2020/12/19 10:03:29;;;;;;;;;;;6.80;99.90;;;;;;5134132;27;20248;-86
2020/12/19 10:05:57;;;;;;;;;;;6.90;99.90;;;;;;5137014;27;19907;-85
2020/12/19 10:08:29;;;;;;;;;;;7.00;99.90;;;;;;5119567;27;19919;-86
2020/12/19 10:10:57;;;;;;;;;;;7.20;99.90;;;;;;5119232;27;19925;-86
2020/12/19 10:13:29;;;;;;;;;;;7.50;99.90;;;;;;5137344;27;20267;-87
2020/12/19 10:15:57;;;;;;;;;;;7.90;99.90;;;;;;5119043;27;20283;-86
2020/12/19 10:18:23;;;;;;;;;;;8.20;99.90;;;;;;5117694;27;19916;-86
2020/12/19 10:20:53;;;;;;;;;;;8.40;99.90;;;;;;5137502;27;19994;-86
2020/12/19 10:23:24;;;;;;;;;;;8.40;99.90;;;;;;5132826;27;19908;-86
2020/12/19 10:25:57;;;;;;;;;;;8.50;99.90;;;;;;5118723;27;19914;-86
2020/12/19 10:28:25;;;;;;;;;;;8.50;99.90;;;;;;5119063;27;19907;-86
2020/12/19 10:30:58;;;;;;;;;;;8.60;99.90;;;;;;5137003;27;19976;-85
2020/12/19 10:33:24;;;;;;;;;;;8.60;99.90;;;;;;5137286;27;19914;-86
2020/12/19 10:36:09;;;;;;;;;;;8.70;99.90;;;;;;5114008;27;19947;-85
2020/12/19 10:38:44;;;;;;;;;;;8.70;99.90;;;;;;5117230;27;20325;-86
2020/12/19 10:41:15;;;;;;;;;;;8.80;99.90;;;;;;5118618;27;19914;-85
2020/12/19 10:43:44;;;;;;;;;;;8.80;99.90;;;;;;5118173;27;19962;-85
2020/12/19 10:46:12;;;;;;;;;;;8.90;99.90;;;;;;5118531;27;19933;-85
2020/12/19 10:48:46;;;;;;;;;;;9.00;99.90;;;;;;5136894;27;20402;-85
2020/12/19 10:51:14;;;;;;;;;;;9.10;99.90;;;;;;5114039;27;19911;-85
2020/12/19 10:53:47;;;;;;;;;;;9.10;99.90;;;;;;5118036;27;20360;-86
2020/12/19 10:56:16;;;;;;;;;;;9.20;99.90;;;;;;5117913;27;19972;-85
2020/12/19 10:58:44;;;;;;;;;;;9.20;99.90;;;;;;5117758;27;19953;-85
2020/12/19 11:01:12;;;;;;;;;;;9.20;99.90;;;;;;5120909;27;19964;-85
2020/12/19 11:03:42;;;;;;;;;;;9.30;99.90;;;;;;5133600;27;19915;-86
2020/12/19 11:06:10;;;;;;;;;;;9.40;99.90;;;;;;5117763;27;19980;-85
2020/12/19 11:08:42;;;;;;;;;;;9.50;99.90;;;;;;5133307;27;19934;-86
2020/12/19 11:11:12;;;;;;;;;;;9.50;99.90;;;;;;5133931;27;19922;-85
2020/12/19 11:13:40;;;;;;;;;;;9.60;99.90;;;;;;5132809;27;19937;-86
2020/12/19 11:16:09;;;;;;;;;;;9.60;99.90;;;;;;5131809;27;19908;-86
2020/12/19 11:18:37;;;;;;;;;;;9.70;99.90;;;;;;5117773;27;19911;-86
2020/12/19 11:21:04;;;;;;;;;;;9.70;99.90;;;;;;5114308;27;19912;-86
2020/12/19 11:23:29;;;;;;;;;;;9.80;99.90;;;;;;5117629;27;19907;-85
2020/12/19 11:25:55;;;;;;;;;;;9.80;99.90;;;;;;5092821;28;19912;-85
2020/12/19 11:28:21;;;;;;;;;;;9.90;99.90;;;;;;5075395;28;20403;-85
2020/12/19 11:30:50;;;;;;;;;;;9.90;99.90;;;;;;5069270;28;19915;-86
2020/12/19 11:33:21;;;;;;;;;;;9.90;99.90;;;;;;5069549;28;19919;-85
2020/12/19 11:35:48;;;;;;;;;;;9.90;99.90;;;;;;5092341;28;20003;-86
2020/12/19 11:38:17;;;;;;;;;;;10.00;99.90;;;;;;5075482;28;19927;-86
2020/12/19 11:40:49;;;;;;;;;;;10.10;99.90;;;;;;5036485;28;19924;-86
2020/12/19 11:43:19;;;;;;;;;;;10.60;99.90;;;;;;5051185;28;19916;-84
2020/12/19 11:45:53;;;;;;;;;;;11.20;99.90;;;;;;5036014;28;20003;-84
2020/12/19 11:48:19;;;;;;;;;;;11.60;99.90;;;;;;5032684;28;19920;-84
2020/12/19 11:50:51;;;;;;;;;;;12.10;99.90;;;;;;5052147;28;19909;-84
2020/12/19 11:53:23;;;;;;;;;;;12.60;99.90;;;;;;5031754;28;19909;-85
2020/12/19 11:55:51;;;;;;;;;;;12.80;99.90;;;;;;5032475;28;19913;-85
2020/12/19 11:58:16;;;;;;;;;;;13.10;99.90;;;;;;5071859;28;20401;-85
2020/12/19 12:00:52;;;;;;;;;;;13.00;99.90;;;;;;5071759;28;19908;-85
2020/12/19 12:03:17;;;;;;;;;;;12.90;99.90;;;;;;5071952;28;20391;-85
2020/12/19 12:05:53;;;;;;;;;;;12.90;99.90;;;;;;5052550;28;19912;-85
2020/12/19 12:08:22;;;;;;;;;;;13.00;99.90;;;;;;5049043;28;19954;-85
2020/12/19 12:11:10;;;;;;;;;;;13.10;99.90;;;;;;5026559;28;19912;-86
2020/12/19 12:13:39;;;;;;;;;;;13.50;99.90;;;;;;5055035;28;19912;-86
2020/12/19 12:16:08;;;;;;;;;;;14.20;99.90;;;;;;5055214;28;19908;-85
2020/12/19 12:18:42;;;;;;;;;;;14.40;99.10;;;;;;5054989;28;19935;-86
2020/12/19 12:21:10;;;;;;;;;;;14.20;98.80;;;;;;5055269;28;20300;-85
2020/12/19 12:23:35;;;;;;;;;;;13.90;98.10;;;;;;5068220;28;19983;-86
2020/12/19 12:26:04;;;;;;;;;;;13.50;98.70;;;;;;5072100;28;19909;-86
2020/12/19 12:28:33;;;;;;;;;;;13.20;98.70;;;;;;5068506;28;19908;-85
2020/12/19 12:31:00;;;;;;;;;;;12.80;99.90;;;;;;5072039;28;19912;-85
2020/12/19 12:33:31;;;;;;;;;;;12.40;99.90;;;;;;5054893;28;19913;-85
2020/12/19 12:35:59;;;;;;;;;;;12.20;99.90;;;;;;5054707;28;19908;-85
2020/12/19 12:38:33;;;;;;;;;;;11.90;99.90;;;;;;5054387;28;19920;-85
2020/12/19 12:41:01;;;;;;;;;;;11.80;99.90;;;;;;5067044;28;19907;-85
2020/12/19 12:43:45;;;;;;;;;;;11.60;99.90;;;;;;5112620;27;19913;-85
2020/12/19 12:46:14;;;;;;;;;;;11.50;99.90;;;;;;5116947;28;19907;-84
2020/12/19 12:48:49;;;;;;;;;;;11.40;99.90;;;;;;5134304;28;20276;-84
2020/12/19 12:51:23;;;;;;;;;;;11.30;99.90;;;;;;5116584;28;19908;-84
2020/12/19 12:53:52;;;;;;;;;;;11.20;99.90;;;;;;5131276;28;20405;-84
2020/12/19 12:56:25;;;;;;;;;;;11.20;99.90;;;;;;5116358;28;19915;-84
2020/12/19 12:58:54;;;;;;;;;;;11.20;99.90;;;;;;5116325;28;19919;-85
2020/12/19 13:01:22;;;;;;;;;;;11.20;99.90;;;;;;5116382;28;19908;-84
2020/12/19 13:03:50;;;;;;;;;;;11.10;99.90;;;;;;5116227;28;19907;-84
2020/12/19 13:06:31;;;;;;;;;;;11.10;99.90;;;;;;5134708;28;19994;-84
2020/12/19 13:08:59;;;;;;;;;;;11.10;99.90;;;;;;5114414;28;19978;-84
2020/12/19 13:11:26;;;;;;;;;;;11.10;99.90;;;;;;5116362;28;19908;-84
2020/12/19 13:13:52;;;;;;;;;;;11.10;99.90;;;;;;5116060;28;19922;-84
2020/12/19 13:16:34;;;;;;;;;;;11.10;99.90;;;;;;5116454;28;19907;-85
2020/12/19 13:19:02;;;;;;;;;;;11.00;99.90;;;;;;5118114;27;20443;-84
2020/12/19 13:21:28;;;;;;;;;;;11.00;99.90;;;;;;5140054;27;19907;-85
2020/12/19 13:24:02;;;;;;;;;;;11.00;99.90;;;;;;5131947;27;20311;-84
2020/12/19 13:26:30;;;;;;;;;;;10.90;99.90;;;;;;5122409;27;19919;-85
2020/12/19 13:29:09;;;;;;;;;;;10.90;99.90;;;;;;5120845;27;20409;-84
2020/12/19 13:31:44;;;;;;;;;;;10.90;99.90;;;;;;5138291;27;19908;-84
2020/12/19 13:34:33;;;;;;;;;;;10.90;99.90;;;;;;5136340;27;19908;-84
2020/12/19 13:37:01;;;;;;;;;;;11.00;99.90;;;;;;5119278;27;19954;-84
2020/12/19 13:39:31;;;;;;;;;;;11.00;99.90;;;;;;5057853;28;20327;-84
2020/12/19 13:42:02;;;;;;;;;;;11.10;99.90;;;;;;5057798;28;19954;-85
2020/12/19 13:44:30;;;;;;;;;;;11.10;99.90;;;;;;5045115;28;20023;-84
2020/12/19 13:47:04;;;;;;;;;;;11.10;99.90;;;;;;5037333;28;20365;-84
2020/12/19 13:49:33;;;;;;;;;;;11.20;99.90;;;;;;5037828;28;19944;-85
2020/12/19 13:52:01;;;;;;;;;;;11.30;99.90;;;;;;5037553;28;19917;-85
2020/12/19 13:54:32;;;;;;;;;;;11.30;99.90;;;;;;5037403;28;19908;-84
2020/12/19 13:56:59;;;;;;;;;;;11.30;99.90;;;;;;5035058;28;19921;-84
2020/12/19 13:59:27;;;;;;;;;;;11.30;99.90;;;;;;5031786;28;20007;-84
2020/12/19 14:01:56;;;;;;;;;;;11.40;99.90;;;;;;5034590;28;19917;-84
2020/12/19 14:04:22;;;;;;;;;;;11.40;99.90;;;;;;5034756;28;20400;-84
2020/12/19 14:06:55;;;;;;;;;;;11.40;99.90;;;;;;5037373;28;19963;-84
2020/12/19 14:09:23;;;;;;;;;;;11.50;99.90;;;;;;5041162;28;20445;-84
2020/12/19 14:11:54;;;;;;;;;;;11.50;99.90;;;;;;5098497;28;20353;-85
2020/12/19 14:14:37;;;;;;;;;;;11.50;99.90;;;;;;5118214;28;19930;-84
2020/12/19 14:17:11;;;;;;;;;;;11.50;99.90;;;;;;5098882;28;20368;-84
2020/12/19 14:19:44;;;;;;;;;;;11.50;99.90;;;;;;5116684;28;20006;-85
2020/12/19 14:22:12;;;;;;;;;;;11.50;99.90;;;;;;5095333;28;20387;-84
2020/12/19 14:24:41;;;;;;;;;;;11.50;99.90;;;;;;5097554;28;19916;-85
2020/12/19 14:27:10;;;;;;;;;;;11.50;99.90;;;;;;5095269;28;19918;-86
2020/12/19 14:29:58;;;;;;;;;;;11.50;99.90;;;;;;5112730;28;19935;-85
2020/12/19 14:32:24;;;;;;;;;;;11.50;99.90;;;;;;5082753;28;19965;-85
2020/12/19 14:34:52;;;;;;;;;;;11.50;99.90;;;;;;5098199;28;20422;-85
2020/12/19 14:37:29;;;;;;;;;;;11.40;99.90;;;;;;5094531;28;20002;-84
2020/12/19 14:39:57;;;;;;;;;;;11.40;99.90;;;;;;5094986;28;19950;-84
2020/12/19 14:42:38;;;;;;;;;;;11.30;99.90;;;;;;5098092;28;20387;-84
2020/12/19 14:45:08;;;;;;;;;;;11.30;99.90;;;;;;5112515;27;19919;-83
2020/12/19 14:47:37;;;;;;;;;;;11.30;99.90;;;;;;5118334;27;20022;-84
2020/12/19 14:50:05;;;;;;;;;;;11.30;99.90;;;;;;5118836;27;19914;-85
2020/12/19 14:52:36;;;;;;;;;;;11.30;99.90;;;;;;5136864;27;20423;-85
2020/12/19 14:55:11;;;;;;;;;;;11.30;99.90;;;;;;5118661;27;19961;-84
2020/12/19 14:57:42;;;;;;;;;;;11.40;99.90;;;;;;5096525;28;19915;-84